Time;durP1;ratioP1;P1;durP2;ratioP2;P2;SDS_P1;SDS_P2;PMS_P1;PMS_P2;Temp;Humidity;BMP_temperature;BMP_pressure;BME280_temperature;BME280_humidity;BME280_pressure;Samples;Min_cycle;Max_cycle;Signal;HPM_P1;HPM_P2
2023/01/08 00:01:39;;;;;;;4.67;2.57;;;;;;;7.03;100.00;99502.91;5020982;28;20037;-76
2023/01/08 00:04:04;;;;;;;4.87;2.40;;;;;;;7.07;100.00;99483.81;5021795;28;20033;-76
2023/01/08 00:06:30;;;;;;;4.43;2.43;;;;;;;7.05;100.00;99464.56;5007728;28;20054;-76
2023/01/08 00:08:55;;;;;;;5.07;3.67;;;;;;;6.98;100.00;99459.13;5008328;28;20127;-75
2023/01/08 00:11:20;;;;;;;4.10;2.63;;;;;;;6.98;100.00;99458.28;5017685;28;20037;-76
2023/01/08 00:13:46;;;;;;;3.83;2.70;;;;;;;7.00;100.00;99463.41;5022540;28;20037;-76
2023/01/08 00:16:15;;;;;;;3.57;2.50;;;;;;;7.06;100.00;99478.66;5007691;28;20046;-75
2023/01/08 00:18:42;;;;;;;3.97;3.22;;;;;;;7.01;100.00;99473.03;5014333;28;20041;-76
2023/01/08 00:21:08;;;;;;;3.78;2.50;;;;;;;7.00;100.00;99461.59;4989864;28;20030;-76
2023/01/08 00:23:34;;;;;;;6.00;2.88;;;;;;;7.03;100.00;99465.75;4999127;28;20037;-76
2023/01/08 00:26:00;;;;;;;;;;;;;;;7.08;100.00;99466.06;5017123;28;20507;-75
2023/01/08 00:28:25;;;;;;;3.30;2.47;;;;;;;7.02;100.00;99441.00;5018498;28;19913;-78
2023/01/08 00:30:51;;;;;;;4.40;2.70;;;;;;;6.96;100.00;99439.88;5007033;28;20053;-76
2023/01/08 00:33:16;;;;;;;3.17;2.40;;;;;;;6.97;100.00;99453.97;5011273;28;20025;-76
2023/01/08 00:35:42;;;;;;;4.43;2.63;;;;;;;6.94;100.00;99462.28;5007299;28;20080;-76
2023/01/08 00:38:07;;;;;;;4.70;3.10;;;;;;;6.90;100.00;99451.16;5023218;28;20033;-76
2023/01/08 00:40:34;;;;;;;3.17;2.50;;;;;;;6.99;100.00;99470.53;5022672;28;20105;-76
2023/01/08 00:42:59;;;;;;;4.78;2.80;;;;;;;6.96;100.00;99453.16;5017954;28;20057;-75
2023/01/08 00:45:25;;;;;;;3.38;2.38;;;;;;;6.97;100.00;99451.31;5022582;28;20065;-76
2023/01/08 00:47:50;;;;;;;4.20;3.27;;;;;;;6.97;100.00;99444.16;4998222;28;20873;-75
2023/01/08 00:50:16;;;;;;;4.43;2.90;;;;;;;6.95;100.00;99427.63;5011452;28;20064;-76
2023/01/08 00:52:41;;;;;;;2.78;2.25;;;;;;;6.91;100.00;99433.44;5021836;28;20125;-77
2023/01/08 00:55:07;;;;;;;4.47;3.03;;;;;;;7.01;100.00;99447.31;5022031;28;20037;-76
2023/01/08 00:57:38;;;;;;;5.28;2.80;;;;;;;7.07;100.00;99454.63;4989306;28;20441;-77
2023/01/08 01:00:07;;;;;;;4.20;2.33;;;;;;;7.03;100.00;99417.97;4991927;28;20030;-76
2023/01/08 01:02:34;;;;;;;4.97;2.85;;;;;;;7.00;100.00;99419.16;5021952;28;20041;-76
2023/01/08 01:04:59;;;;;;;4.95;2.50;;;;;;;7.09;100.00;99434.00;5006494;28;20100;-76
2023/01/08 01:07:24;;;;;;;3.57;2.57;;;;;;;7.09;100.00;99423.41;5005472;28;20121;-76
2023/01/08 01:09:50;;;;;;;3.40;2.30;;;;;;;6.98;100.00;99399.91;5005467;28;20077;-76
2023/01/08 01:12:15;;;;;;;5.00;2.80;;;;;;;7.09;100.00;99412.78;5005279;28;20041;-76
2023/01/08 01:14:41;;;;;;;3.07;2.20;;;;;;;7.05;100.00;99397.41;4989036;28;20087;-76
2023/01/08 01:17:06;;;;;;;8.47;3.30;;;;;;;7.01;100.00;99388.13;5008897;28;20427;-76
2023/01/08 01:19:31;;;;;;;4.07;2.73;;;;;;;7.11;100.00;99405.47;5009878;28;20061;-76
2023/01/08 01:21:58;;;;;;;8.43;3.20;;;;;;;7.10;100.00;99408.31;5011851;28;20038;-77
2023/01/08 01:24:23;;;;;;;5.35;3.53;;;;;;;7.08;100.00;99397.03;5006511;28;20048;-76
2023/01/08 01:26:52;;;;;;;3.85;2.72;;;;;;;7.03;100.00;99397.56;5021306;28;20037;-76
2023/01/08 01:29:17;;;;;;;5.45;3.03;;;;;;;7.07;100.00;99396.22;5006293;28;20022;-76
2023/01/08 01:31:43;;;;;;;3.60;2.80;;;;;;;7.04;100.00;99403.69;5005153;28;20040;-76
2023/01/08 01:34:09;;;;;;;5.07;3.03;;;;;;;7.10;100.00;99403.84;5023585;28;20053;-77
2023/01/08 01:36:35;;;;;;;3.50;2.80;;;;;;;7.19;100.00;99399.31;5007951;28;20026;-76
2023/01/08 01:39:00;;;;;;;;;;;;;;;7.11;100.00;99394.84;4989106;28;20529;-76
2023/01/08 01:41:27;;;;;;;7.10;3.05;;;;;;;7.05;100.00;99397.41;5021380;28;19984;-76
2023/01/08 01:43:58;;;;;;;7.28;2.78;;;;;;;7.04;100.00;99404.50;5021480;28;20627;-76
2023/01/08 01:46:38;;;;;;;8.75;3.45;;;;;;;7.07;100.00;99424.56;5005012;28;20045;-75
2023/01/08 01:49:09;;;;;;;4.97;3.20;;;;;;;7.12;100.00;99438.19;5004974;28;20705;-78
2023/01/08 01:51:35;;;;;;;7.50;3.17;;;;;;;7.19;100.00;99424.03;5014477;28;20795;-76
2023/01/08 01:54:02;;;;;;;;;;;;;;;7.20;100.00;99408.94;5014137;28;20061;-76
2023/01/08 01:56:29;;;;;;;8.32;3.50;;;;;;;7.17;100.00;99383.56;5004831;28;20528;-75
2023/01/08 01:58:55;;;;;;;5.32;2.92;;;;;;;7.18;100.00;99373.75;5005879;28;20038;-76
2023/01/08 02:01:21;;;;;;;3.60;2.80;;;;;;;7.23;100.00;99382.03;5005821;28;20080;-76
2023/01/08 02:03:47;;;;;;;4.75;3.13;;;;;;;7.20;100.00;99369.13;5006179;28;20033;-75
2023/01/08 02:06:33;;;;;;;5.37;3.10;;;;;;;7.25;100.00;99364.09;4988304;28;20018;-76
2023/01/08 02:09:18;;;;;;;5.00;3.17;;;;;;;7.21;100.00;99357.50;4988416;28;20034;-77
2023/01/08 02:12:15;;;;;;;4.68;3.25;;;;;;;7.22;100.00;99371.59;5004342;28;20033;-76
2023/01/08 02:14:53;;;;;;;9.18;3.50;;;;;;;7.23;100.00;99365.28;5025312;28;20111;-77
2023/01/08 02:17:39;;;;;;;3.78;2.67;;;;;;;7.17;100.00;99367.63;5010111;28;20109;-76
2023/01/08 02:20:21;;;;;;;5.55;2.95;;;;;;;7.17;100.00;99361.50;5011928;28;20138;-76
2023/01/08 02:22:55;;;;;;;4.25;3.20;;;;;;;7.28;100.00;99384.16;5016525;28;20120;-77
2023/01/08 02:25:21;;;;;;;3.10;2.60;;;;;;;7.18;100.00;99356.00;5009409;28;20050;-76
2023/01/08 02:27:50;;;;;;;4.80;2.93;;;;;;;7.17;100.00;99375.59;5009465;28;20034;-76
2023/01/08 02:30:17;;;;;;;6.65;3.10;;;;;;;7.07;100.00;99372.34;4992017;28;20054;-76
2023/01/08 02:32:43;;;;;;;4.63;3.20;;;;;;;7.06;100.00;99388.44;5009143;28;20052;-78
2023/01/08 02:35:09;;;;;;;4.38;2.63;;;;;;;7.15;100.00;99411.28;5009547;28;20030;-76
2023/01/08 02:37:35;;;;;;;3.67;2.70;;;;;;;7.15;100.00;99416.59;5024624;28;20025;-77
2023/01/08 02:40:13;;;;;;;;;;;;;;;7.08;100.00;99413.78;5025240;28;20398;-76
2023/01/08 02:42:54;;;;;;;5.65;2.78;;;;;;;7.07;100.00;99428.06;5017167;28;19913;-76
2023/01/08 02:45:30;;;;;;;4.43;3.03;;;;;;;7.15;100.00;99448.44;5009195;28;20041;-76
2023/01/08 02:48:01;;;;;;;;;;;;;;;7.09;100.00;99436.66;5018466;28;20083;-76
2023/01/08 02:51:14;;;;;;;4.70;3.35;;;;;;;7.11;100.00;99455.09;5025960;28;20399;-77
2023/01/08 02:53:45;;;;;;;6.40;3.25;;;;;;;6.98;100.00;99435.22;4986261;28;20069;-76
2023/01/08 02:56:19;;;;;;;5.68;3.08;;;;;;;7.05;100.00;99456.59;5007722;28;20034;-76
2023/01/08 02:58:47;;;;;;;4.60;3.00;;;;;;;7.12;100.00;99457.56;4989107;28;20034;-76
2023/01/08 03:01:15;;;;;;;5.43;3.72;;;;;;;7.09;100.00;99449.94;4991015;28;20132;-76
2023/01/08 03:03:45;;;;;;;5.90;2.80;;;;;;;7.14;100.00;99463.53;5008727;28;20060;-76
2023/01/08 03:06:16;;;;;;;5.75;3.00;;;;;;;7.08;100.00;99447.47;5008658;28;20042;-77
2023/01/08 03:08:46;;;;;;;3.65;3.08;;;;;;;7.05;100.00;99469.88;5015676;28;20035;-76
2023/01/08 03:11:14;;;;;;;5.15;3.60;;;;;;;7.11;100.00;99469.16;5016806;28;20040;-76
2023/01/08 03:13:51;;;;;;;5.90;2.95;;;;;;;7.12;100.00;99456.75;5008506;28;20038;-76
2023/01/08 03:16:22;;;;;;;6.47;4.38;;;;;;;7.10;100.00;99464.06;5007349;28;20423;-76
2023/01/08 03:18:58;;;;;;;5.13;3.40;;;;;;;7.07;100.00;99467.88;5023660;28;20034;-77
2023/01/08 03:21:24;;;;;;;5.00;3.20;;;;;;;7.08;100.00;99466.88;5008448;28;20498;-76
2023/01/08 03:23:50;;;;;;;7.07;2.92;;;;;;;6.99;100.00;99446.66;5008890;28;20013;-76
2023/01/08 03:26:21;;;;;;;4.65;3.50;;;;;;;7.05;100.00;99487.63;4990817;28;20044;-76
2023/01/08 03:28:52;;;;;;;4.93;3.05;;;;;;;6.99;100.00;99491.78;5007208;28;20040;-76
2023/01/08 03:31:18;;;;;;;5.07;3.25;;;;;;;7.04;100.00;99502.69;5008234;28;20029;-76
2023/01/08 03:33:46;;;;;;;4.10;2.92;;;;;;;7.06;100.00;99492.75;5006985;28;20107;-77
2023/01/08 03:36:19;;;;;;;6.40;3.58;;;;;;;7.02;100.00;99491.44;4990803;28;20032;-75
2023/01/08 03:38:51;;;;;;;4.72;3.22;;;;;;;6.97;100.00;99493.78;5006935;28;20127;-76
2023/01/08 03:41:20;;;;;;;6.70;3.03;;;;;;;7.04;100.00;99521.28;5008480;28;20493;-76
2023/01/08 03:43:45;;;;;;;7.25;3.33;;;;;;;6.96;100.00;99519.47;5008485;28;20105;-77
2023/01/08 03:46:17;;;;;;;4.95;2.97;;;;;;;6.96;100.00;99524.78;5025180;28;20504;-75
2023/01/08 03:48:43;;;;;;;4.30;2.92;;;;;;;6.92;100.00;99523.47;5016605;28;20030;-76
2023/01/08 03:51:09;;;;;;;4.75;3.47;;;;;;;6.95;100.00;99538.22;5008007;28;20442;-76
2023/01/08 03:53:35;;;;;;;6.05;3.00;;;;;;;6.91;100.00;99543.03;5006928;28;20033;-76
2023/01/08 03:56:00;;;;;;;3.42;3.03;;;;;;;6.85;100.00;99543.72;5014781;28;20529;-76
2023/01/08 03:58:25;;;;;;;4.57;2.87;;;;;;;6.78;100.00;99542.72;5015287;28;20036;-76
2023/01/08 04:00:51;;;;;;;5.87;3.57;;;;;;;6.72;100.00;99540.75;5007284;28;20113;-76
2023/01/08 04:03:17;;;;;;;5.47;3.42;;;;;;;6.86;100.00;99592.28;4990459;28;20029;-76
2023/01/08 04:05:42;;;;;;;8.60;3.65;;;;;;;6.74;100.00;99566.13;5014436;28;20042;-76
2023/01/08 04:08:08;;;;;;;5.40;3.30;;;;;;;6.75;100.00;99565.09;5020937;28;20034;-76
2023/01/08 04:10:33;;;;;;;7.60;3.33;;;;;;;6.74;100.00;99582.03;5018770;28;20120;-76
2023/01/08 04:12:58;;;;;;;6.47;3.13;;;;;;;6.81;100.00;99594.63;5009364;28;20036;-76
2023/01/08 04:15:24;;;;;;;4.77;3.37;;;;;;;6.74;100.00;99590.00;5019042;28;20022;-76
2023/01/08 04:17:49;;;;;;;11.00;4.10;;;;;;;6.74;100.00;99584.69;5023205;28;20037;-76
2023/01/08 04:20:14;;;;;;;6.97;3.50;;;;;;;6.72;100.00;99586.66;5022937;28;20037;-76
2023/01/08 04:22:40;;;;;;;3.87;3.23;;;;;;;6.69;100.00;99586.97;5023460;28;20073;-76
2023/01/08 04:25:05;;;;;;;5.33;3.10;;;;;;;6.73;100.00;99596.28;5020056;28;20033;-76
2023/01/08 04:27:31;;;;;;;4.95;3.35;;;;;;;6.79;100.00;99601.91;5027105;28;20030;-76
2023/01/08 04:29:56;;;;;;;5.60;3.45;;;;;;;6.79;100.00;99593.94;5025878;28;20494;-76
2023/01/08 04:32:22;;;;;;;7.00;3.20;;;;;;;6.72;100.00;99584.03;5016029;28;20116;-76
2023/01/08 04:34:47;;;;;;;5.97;3.40;;;;;;;6.75;100.00;99586.31;5016017;28;20033;-76
2023/01/08 04:37:12;;;;;;;7.60;3.67;;;;;;;6.64;100.00;99581.34;5005610;28;20022;-76
2023/01/08 04:39:38;;;;;;;4.47;2.87;;;;;;;6.63;100.00;99577.06;4990392;28;20041;-75
2023/01/08 04:42:03;;;;;;;6.20;3.20;;;;;;;6.70;100.00;99583.34;5025301;28;20072;-76
2023/01/08 04:44:28;;;;;;;7.03;4.23;;;;;;;6.62;100.00;99570.06;5009134;28;20021;-76
2023/01/08 04:46:54;;;;;;;5.67;3.07;;;;;;;6.72;100.00;99586.66;5026349;28;21123;-76
2023/01/08 04:49:19;;;;;;;5.13;3.63;;;;;;;6.70;100.00;99571.91;5019037;28;20132;-76
2023/01/08 04:51:44;;;;;;;4.47;2.90;;;;;;;6.66;100.00;99568.75;5005282;28;20104;-76
2023/01/08 04:54:10;;;;;;;5.73;3.33;;;;;;;6.59;100.00;99551.84;5006101;28;20525;-76
2023/01/08 04:56:35;;;;;;;5.20;3.30;;;;;;;6.65;100.00;99569.75;5015254;28;20546;-77
2023/01/08 04:59:01;;;;;;;4.90;3.47;;;;;;;6.61;100.00;99563.13;5025371;28;20125;-76
2023/01/08 05:01:27;;;;;;;4.73;3.30;;;;;;;6.65;100.00;99574.22;5018656;28;20062;-78
2023/01/08 05:04:00;;;;;;;6.22;3.58;;;;;;;6.68;100.00;99580.03;5006518;28;20034;-77
2023/01/08 05:06:28;;;;;;;4.47;3.50;;;;;;;6.71;100.00;99581.53;5006524;28;20026;-76
2023/01/08 05:08:53;;;;;;;3.78;2.60;;;;;;;6.62;100.00;99571.91;5006744;28;20034;-76
2023/01/08 05:11:19;;;;;;;4.57;3.03;;;;;;;6.62;100.00;99558.66;5017966;28;20091;-76
2023/01/08 05:13:47;;;;;;;6.93;3.93;;;;;;;6.69;100.00;99567.59;5016608;28;20032;-76
2023/01/08 05:16:13;;;;;;;4.18;2.90;;;;;;;6.63;100.00;99560.31;5025744;28;20064;-76
2023/01/08 05:18:38;;;;;;;5.37;3.23;;;;;;;6.62;100.00;99569.25;5017260;28;20065;-75
2023/01/08 05:21:04;;;;;;;4.20;2.40;;;;;;;6.65;100.00;99574.22;5014390;28;20300;-76
2023/01/08 05:23:31;;;;;;;4.95;3.50;;;;;;;6.60;100.00;99564.09;5005460;28;20022;-76
2023/01/08 05:25:57;;;;;;;5.97;3.55;;;;;;;6.59;100.00;99559.81;4988477;28;20472;-78
2023/01/08 05:28:23;;;;;;;6.90;3.75;;;;;;;6.58;100.00;99562.63;5005342;28;20050;-76
2023/01/08 05:30:48;;;;;;;5.57;3.35;;;;;;;6.66;100.00;99566.09;5020348;28;20610;-76
2023/01/08 05:33:14;;;;;;;7.13;3.53;;;;;;;6.57;100.00;99542.41;5017136;28;20042;-75
2023/01/08 05:35:39;;;;;;;5.75;3.33;;;;;;;6.67;100.00;99558.97;5002632;28;20285;-76
2023/01/08 05:38:05;;;;;;;6.70;3.70;;;;;;;6.66;100.00;99550.19;5021358;28;20068;-77
2023/01/08 05:40:31;;;;;;;4.10;2.80;;;;;;;6.65;100.00;99563.59;5006052;28;20562;-76
2023/01/08 05:42:58;;;;;;;7.77;4.50;;;;;;;6.78;100.00;99555.97;5008207;28;20037;-76
2023/01/08 05:45:24;;;;;;;5.75;3.65;;;;;;;6.73;100.00;99550.34;5015733;28;20030;-76
2023/01/08 05:47:49;;;;;;;7.90;4.50;;;;;;;6.71;100.00;99539.91;5021069;28;20904;-76
2023/01/08 05:50:15;;;;;;;4.70;3.53;;;;;;;6.70;100.00;99535.59;4980145;28;20061;-76
2023/01/08 05:52:40;;;;;;;5.30;3.13;;;;;;;6.67;100.00;99538.59;4980558;28;20269;-79
2023/01/08 05:55:05;;;;;;;6.67;3.73;;;;;;;6.76;100.00;99534.91;5021104;28;20037;-76
2023/01/08 05:57:31;;;;;;;5.45;3.20;;;;;;;6.76;100.00;99528.78;5004891;28;20285;-76
2023/01/08 05:59:56;;;;;;;7.60;3.93;;;;;;;6.73;100.00;99511.38;5012852;28;20512;-76
2023/01/08 06:02:21;;;;;;;5.33;3.53;;;;;;;6.71;100.00;99505.41;4988185;28;20096;-76
2023/01/08 06:04:47;;;;;;;9.63;3.57;;;;;;;6.67;100.00;99512.06;5005831;28;20100;-76
2023/01/08 06:07:12;;;;;;;5.43;3.33;;;;;;;6.69;100.00;99518.03;5005847;28;20038;-75
2023/01/08 06:09:37;;;;;;;5.57;3.23;;;;;;;6.62;100.00;99514.38;5004466;28;20107;-76
2023/01/08 06:12:03;;;;;;;5.30;3.93;;;;;;;6.68;100.00;99532.28;5016847;28;20021;-76
2023/01/08 06:14:28;;;;;;;4.82;3.58;;;;;;;6.66;100.00;99531.63;5006439;28;20461;-76
2023/01/08 06:16:54;;;;;;;5.90;4.03;;;;;;;6.64;100.00;99525.66;5012779;28;21065;-76
2023/01/08 06:19:19;;;;;;;6.00;2.93;;;;;;;6.68;100.00;99532.28;5004660;28;20842;-75
2023/01/08 06:21:45;;;;;;;4.95;3.42;;;;;;;6.64;100.00;99525.66;5005546;28;20449;-76
2023/01/08 06:24:10;;;;;;;4.68;3.63;;;;;;;6.57;100.00;99527.31;5004870;28;20130;-76
2023/01/08 06:26:35;;;;;;;4.77;3.30;;;;;;;6.59;100.00;99538.59;5020685;28;20041;-76
2023/01/08 06:29:01;;;;;;;7.23;3.93;;;;;;;6.45;100.00;99520.69;5005724;28;20119;-77
2023/01/08 06:31:26;;;;;;;7.17;3.13;;;;;;;6.57;100.00;99553.00;5005464;28;20030;-75
2023/01/08 06:33:51;;;;;;;5.20;3.83;;;;;;;6.57;100.00;99545.06;5021042;28;20091;-76
2023/01/08 06:36:17;;;;;;;4.30;3.23;;;;;;;6.56;100.00;99544.22;5017215;28;20092;-76
2023/01/08 06:38:42;;;;;;;5.73;4.03;;;;;;;6.53;100.00;99542.75;4989927;28;20073;-76
2023/01/08 06:41:09;;;;;;;7.23;3.57;;;;;;;6.60;100.00;99544.72;5005015;28;20042;-76
2023/01/08 06:43:36;;;;;;;5.53;3.58;;;;;;;6.53;100.00;99532.13;5005477;28;20029;-76
2023/01/08 06:46:01;;;;;;;5.05;3.28;;;;;;;6.51;100.00;99533.31;5020561;28;20132;-76
2023/01/08 06:48:27;;;;;;;5.55;3.65;;;;;;;6.50;100.00;99542.22;5005673;28;20140;-77
2023/01/08 06:50:52;;;;;;;6.23;3.53;;;;;;;6.52;100.00;99558.81;5013091;28;20128;-76
2023/01/08 06:53:18;;;;;;;5.95;3.30;;;;;;;6.46;100.00;99549.72;5004069;28;20161;-77
2023/01/08 06:55:44;;;;;;;5.50;4.00;;;;;;;6.44;100.00;99551.69;4987685;28;20026;-76
2023/01/08 06:58:11;;;;;;;5.17;3.33;;;;;;;6.52;100.00;99564.94;4988137;28;20546;-76
2023/01/08 07:00:37;;;;;;;5.65;3.65;;;;;;;6.48;100.00;99562.78;5008399;28;20029;-75
2023/01/08 07:03:03;;;;;;;4.93;3.67;;;;;;;6.55;100.00;99579.69;4991403;28;20506;-76
2023/01/08 07:05:28;;;;;;;8.05;3.92;;;;;;;6.44;100.00;99567.59;5007439;28;20030;-75
2023/01/08 07:07:53;;;;;;;6.67;3.50;;;;;;;6.38;100.00;99570.06;5008957;28;20026;-76
2023/01/08 07:10:19;;;;;;;5.07;3.53;;;;;;;6.49;100.00;99585.66;5024255;28;20076;-76
2023/01/08 07:12:44;;;;;;;5.40;3.50;;;;;;;6.44;100.00;99577.34;5008977;28;20573;-76
2023/01/08 07:15:10;;;;;;;4.60;3.40;;;;;;;6.51;100.00;99589.81;5007759;28;20030;-76
2023/01/08 07:17:36;;;;;;;6.53;4.00;;;;;;;6.56;100.00;99594.63;5009110;28;20033;-76
2023/01/08 07:20:01;;;;;;;6.18;3.40;;;;;;;6.52;100.00;99572.88;5009106;28;20029;-76
2023/01/08 07:22:27;;;;;;;4.53;3.53;;;;;;;6.49;100.00;99570.59;5023905;28;20033;-77
2023/01/08 07:24:52;;;;;;;6.82;4.18;;;;;;;6.56;100.00;99581.38;5024120;28;20387;-76
2023/01/08 07:27:18;;;;;;;5.83;3.47;;;;;;;6.59;100.00;99575.72;5023733;28;20030;-76
2023/01/08 07:29:43;;;;;;;4.95;3.25;;;;;;;6.55;100.00;99569.94;5007352;28;20036;-75
2023/01/08 07:32:09;;;;;;;5.93;3.80;;;;;;;6.59;100.00;99564.28;5007260;28;20789;-75
2023/01/08 07:34:35;;;;;;;4.53;3.43;;;;;;;6.60;100.00;99561.44;5023685;28;20096;-76
2023/01/08 07:37:01;;;;;;;6.25;3.50;;;;;;;6.64;100.00;99559.31;5008107;28;20029;-76
2023/01/08 07:39:26;;;;;;;5.25;3.83;;;;;;;6.58;100.00;99547.56;5023778;28;20650;-77
2023/01/08 07:41:51;;;;;;;5.93;3.70;;;;;;;6.58;100.00;99547.56;5006840;28;20041;-76
2023/01/08 07:44:18;;;;;;;5.30;3.40;;;;;;;6.64;100.00;99546.06;5010270;28;20029;-76
2023/01/08 07:46:43;;;;;;;5.93;3.28;;;;;;;6.62;100.00;99548.84;5023075;28;20045;-76
2023/01/08 07:49:09;;;;;;;6.67;3.60;;;;;;;6.69;100.00;99549.84;4990936;28;20014;-76
2023/01/08 07:51:34;;;;;;;7.00;3.67;;;;;;;6.69;100.00;99541.06;5006335;28;20288;-76
2023/01/08 07:54:00;;;;;;;6.00;3.73;;;;;;;6.74;100.00;99531.63;4990606;28;20034;-77
2023/01/08 07:56:25;;;;;;;5.35;3.55;;;;;;;6.69;100.00;99520.66;5008002;28;20030;-76
2023/01/08 07:58:51;;;;;;;10.43;4.97;;;;;;;6.66;100.00;99526.31;5006375;28;20051;-76
2023/01/08 08:01:16;;;;;;;4.47;3.28;;;;;;;6.65;100.00;99535.28;5006633;28;20113;-76
2023/01/08 08:03:42;;;;;;;5.80;3.72;;;;;;;6.76;100.00;99532.25;5013340;28;20037;-76
2023/01/08 08:06:08;;;;;;;4.22;3.17;;;;;;;6.82;100.00;99535.28;4996613;28;20034;-76
2023/01/08 08:08:33;;;;;;;4.63;3.13;;;;;;;6.81;100.00;99515.84;5007537;28;20109;-76
2023/01/08 08:10:59;;;;;;;5.38;3.75;;;;;;;6.84;100.00;99512.88;5006645;28;20049;-76
2023/01/08 08:13:25;;;;;;;4.85;3.00;;;;;;;6.94;100.00;99516.16;5008234;28;20128;-76
2023/01/08 08:15:50;;;;;;;4.70;3.60;;;;;;;6.96;100.00;99518.66;5023123;28;21539;-76
2023/01/08 08:18:15;;;;;;;5.27;3.67;;;;;;;6.94;100.00;99504.72;5015761;28;20026;-76
2023/01/08 08:20:41;;;;;;;6.07;3.73;;;;;;;6.85;100.00;99492.47;5007394;28;20499;-75
2023/01/08 08:23:12;;;;;;;4.77;3.83;;;;;;;6.99;100.00;99513.00;5022774;28;20080;-77
2023/01/08 08:25:39;;;;;;;6.63;4.25;;;;;;;6.96;100.00;99508.88;5007122;28;20033;-76
2023/01/08 08:28:04;;;;;;;7.82;4.53;;;;;;;6.92;100.00;99498.75;4993167;28;20033;-76
2023/01/08 08:30:32;;;;;;;12.98;5.50;;;;;;;6.96;100.00;99502.75;5016489;28;20064;-77
2023/01/08 08:33:02;;;;;;;15.07;6.57;;;;;;;6.85;100.00;99495.13;5006339;28;20623;-76
2023/01/08 08:35:28;;;;;;;12.10;6.40;;;;;;;6.93;100.00;99503.91;5014811;28;20037;-75
2023/01/08 08:37:54;;;;;;;12.48;7.20;;;;;;;7.01;100.00;99508.38;5015784;28;20026;-75
2023/01/08 08:40:19;;;;;;;12.77;6.70;;;;;;;6.99;100.00;99489.13;5007393;28;20138;-76
2023/01/08 08:42:45;;;;;;;14.27;6.93;;;;;;;6.93;100.00;99473.88;5015056;28;20431;-76
2023/01/08 08:45:11;;;;;;;8.90;5.07;;;;;;;6.92;100.00;99488.16;5007175;28;20112;-77
2023/01/08 08:47:36;;;;;;;9.55;4.82;;;;;;;6.90;100.00;99479.53;5022442;28;20033;-75
2023/01/08 08:50:03;;;;;;;7.80;4.85;;;;;;;6.97;100.00;99488.47;5005413;28;20033;-75
2023/01/08 08:52:29;;;;;;;8.25;4.57;;;;;;;7.04;100.00;99492.09;5004169;28;20872;-76
2023/01/08 08:54:55;;;;;;;4.63;3.63;;;;;;;6.95;100.00;99471.88;4992415;28;20045;-75
2023/01/08 08:57:25;;;;;;;8.10;3.50;;;;;;;6.98;100.00;99485.66;5005589;28;20053;-74
2023/01/08 08:59:51;;;;;;;7.18;4.25;;;;;;;7.10;100.00;99493.25;4989344;28;20033;-75
2023/01/08 09:02:16;;;;;;;6.07;4.13;;;;;;;7.06;100.00;99490.09;5006742;28;20048;-75
2023/01/08 09:04:42;;;;;;;6.93;4.47;;;;;;;7.10;100.00;99487.94;5005286;28;20327;-75
2023/01/08 09:07:07;;;;;;;7.27;4.43;;;;;;;7.02;100.00;99469.38;5005382;28;20910;-76
2023/01/08 09:09:33;;;;;;;;;;;;;;;7.14;100.00;99486.59;5006848;28;20056;-75
2023/01/08 09:11:59;;;;;;;6.97;4.28;;;;;;;7.08;100.00;99474.00;5021803;28;19914;-75
2023/01/08 09:14:25;;;;;;;5.57;4.07;;;;;;;7.13;100.00;99488.41;5006450;28;20034;-76
2023/01/08 09:16:50;;;;;;;9.60;5.60;;;;;;;7.18;100.00;99486.06;5006741;28;20091;-75
2023/01/08 09:19:15;;;;;;;9.70;5.80;;;;;;;7.10;100.00;99472.84;5021331;28;20369;-75
2023/01/08 09:21:41;;;;;;;8.45;5.35;;;;;;;7.17;100.00;99487.09;5004608;28;20048;-76
2023/01/08 09:24:07;;;;;;;8.37;4.93;;;;;;;7.18;100.00;99502.00;5021893;28;20029;-75
2023/01/08 09:26:32;;;;;;;6.18;4.30;;;;;;;7.16;100.00;99511.97;5021023;28;20111;-75
2023/01/08 09:28:58;;;;;;;6.17;4.13;;;;;;;7.14;100.00;99529.03;5021863;28;20484;-75
2023/01/08 09:31:25;;;;;;;6.67;4.27;;;;;;;7.05;100.00;99530.91;4988572;28;20277;-75
2023/01/08 09:33:50;;;;;;;8.00;4.20;;;;;;;7.15;100.00;99560.75;5005115;28;20288;-75
2023/01/08 09:36:16;;;;;;;10.40;4.65;;;;;;;7.16;100.00;99573.03;5009391;28;20029;-75
2023/01/08 09:38:43;;;;;;;6.70;4.32;;;;;;;7.10;100.00;99579.00;5013814;28;20049;-75
2023/01/08 09:41:23;;;;;;;5.40;3.83;;;;;;;7.18;100.00;99616.13;5004563;28;20037;-75
2023/01/08 09:43:52;;;;;;;9.90;3.60;;;;;;;7.05;100.00;99607.88;5006264;28;20103;-77
2023/01/08 09:46:20;;;;;;;9.63;5.65;;;;;;;6.92;100.00;99623.47;5006152;28;20109;-77
2023/01/08 09:48:47;;;;;;;7.20;5.15;;;;;;;6.89;100.00;99639.72;5019357;28;20041;-76
2023/01/08 09:51:15;;;;;;;12.52;6.40;;;;;;;6.89;100.00;99672.41;5005901;28;20137;-76
2023/01/08 09:53:42;;;;;;;9.68;6.40;;;;;;;6.88;100.00;99685.81;4988163;28;20077;-76
2023/01/08 09:56:18;;;;;;;9.45;5.88;;;;;;;6.83;100.00;99690.78;5021832;28;20449;-77
2023/01/08 09:58:55;;;;;;;7.85;4.20;;;;;;;6.88;100.00;99702.59;5004514;28;20034;-77
2023/01/08 10:01:24;;;;;;;8.63;5.43;;;;;;;6.91;100.00;99710.22;5005998;28;20037;-77
2023/01/08 10:04:13;;;;;;;13.40;8.65;;;;;;;6.86;100.00;99696.63;5021100;28;20530;-76
2023/01/08 10:06:54;;;;;;;13.30;6.30;;;;;;;6.89;100.00;99687.50;4987708;28;20530;-77
2023/01/08 10:09:27;;;;;;;11.10;6.63;;;;;;;7.02;100.00;99690.47;5004381;28;20096;-76
2023/01/08 10:11:55;;;;;;;9.05;5.53;;;;;;;7.07;100.00;99688.16;5004706;28;20030;-76
2023/01/08 10:14:48;;;;;;;10.48;6.35;;;;;;;7.02;100.00;99679.03;5004101;28;20128;-76
2023/01/08 10:17:26;;;;;;;11.00;6.60;;;;;;;7.04;100.00;99677.88;5006196;28;20030;-77
2023/01/08 10:19:51;;;;;;;14.02;8.70;;;;;;;7.01;100.00;99662.28;5005731;28;20034;-77
2023/01/08 10:22:23;;;;;;;10.97;7.00;;;;;;;7.05;100.00;99665.44;4988167;28;20407;-77
2023/01/08 10:24:49;;;;;;;12.65;6.30;;;;;;;6.92;100.00;99644.69;4988443;28;20281;-77
2023/01/08 10:27:22;;;;;;;10.95;7.15;;;;;;;6.89;100.00;99651.16;4988104;28;20133;-76
2023/01/08 10:29:51;;;;;;;8.57;6.45;;;;;;;6.86;100.00;99648.00;5004777;28;20092;-76
2023/01/08 10:32:28;;;;;;;8.50;5.70;;;;;;;6.90;100.00;99658.13;5005417;28;20623;-77
2023/01/08 10:34:57;;;;;;;10.75;6.68;;;;;;;6.96;100.00;99651.34;5007162;28;20026;-77
2023/01/08 10:37:26;;;;;;;7.53;5.28;;;;;;;7.04;100.00;99647.84;5009466;28;20029;-76
2023/01/08 10:39:54;;;;;;;12.95;5.57;;;;;;;7.09;100.00;99640.22;5025175;28;20057;-76
2023/01/08 10:42:21;;;;;;;8.43;6.13;;;;;;;7.19;100.00;99639.06;5008513;28;20877;-76
2023/01/08 10:44:55;;;;;;;6.28;4.95;;;;;;;7.12;100.00;99631.94;5008104;28;20034;-76
2023/01/08 10:47:22;;;;;;;9.70;5.40;;;;;;;7.06;100.00;99628.09;5009912;28;20116;-75
2023/01/08 10:49:47;;;;;;;7.85;4.97;;;;;;;7.17;100.00;99627.75;5008058;28;20080;-78
2023/01/08 10:52:35;;;;;;;7.03;4.97;;;;;;;7.35;100.00;99640.00;5008006;28;20029;-76
2023/01/08 10:55:26;;;;;;;7.40;5.13;;;;;;;7.37;100.00;99632.72;5011642;28;20042;-76
2023/01/08 10:57:57;;;;;;;10.05;5.32;;;;;;;7.58;100.00;99630.31;5022366;28;20048;-76
2023/01/08 11:00:25;;;;;;;8.65;5.68;;;;;;;7.97;100.00;99634.03;5027198;28;20566;-77
2023/01/08 11:02:51;;;;;;;6.50;3.70;;;;;;;7.97;100.00;99608.28;4991755;28;20037;-76
2023/01/08 11:05:17;;;;;;;8.85;4.57;;;;;;;7.90;100.00;99586.06;5024216;28;20033;-76
2023/01/08 11:07:50;;;;;;;8.50;4.70;;;;;;;7.88;100.00;99582.72;5024251;28;20030;-77
2023/01/08 11:10:26;;;;;;;7.53;5.22;;;;;;;7.74;100.00;99567.53;5009712;28;20038;-76
2023/01/08 11:12:57;;;;;;;6.20;4.18;;;;;;;7.78;100.00;99571.50;5010106;28;20034;-77
2023/01/08 11:15:29;;;;;;;6.65;4.30;;;;;;;7.81;100.00;99571.16;5021444;28;20491;-76
2023/01/08 11:18:03;;;;;;;10.60;4.80;;;;;;;7.90;100.00;99570.09;5015992;28;20021;-76
2023/01/08 11:20:30;;;;;;;6.38;4.38;;;;;;;7.78;100.00;99558.22;5008749;28;20026;-76
2023/01/08 11:23:13;;;;;;;6.88;3.70;;;;;;;7.88;100.00;99561.47;5007193;28;20022;-77
2023/01/08 11:25:41;;;;;;;8.05;4.70;;;;;;;7.73;100.00;99547.28;5007467;28;20037;-76
2023/01/08 11:28:14;;;;;;;5.45;3.80;;;;;;;7.82;100.00;99548.91;5008620;28;20026;-76
2023/01/08 11:30:48;;;;;;;5.95;4.65;;;;;;;7.82;100.00;99555.03;5022191;28;20092;-76
2023/01/08 11:33:21;;;;;;;8.57;4.40;;;;;;;7.83;100.00;99558.50;5008034;28;20099;-75
2023/01/08 11:36:07;;;;;;;7.85;4.20;;;;;;;7.77;100.00;99553.88;4990630;28;20034;-75
2023/01/08 11:38:32;;;;;;;6.93;4.82;;;;;;;7.76;100.00;99552.25;4982368;28;20030;-75